Meteo Giornale » Osservazioni meteo Gran Bretagna » Londra City AP

ore: 23:50 - Osservazioni Meteo Londra City AP
Lat. 51° 30' N Lon. 0° 30' W Alt. 5 metri s.l.m.

sereno Europe/London

15 °C

Sereno

Temp. 24 Ore

11 °C

20 °C

Sud/Sud-Ovest

11.1 Km/h

Dew point 12 °C

Umidità 82 %

Visibilità  10 Km

Il sole sorge alle ore 04:41

Il sole tramonta alle ore 21:23

Data e Ora Cielo e Fenomeni T °C DP °C Um. % Pres. hPa Vis. km Vento km/h
Ieri h: 23:50 sereno Sereno 15 12 82 1019 10 S/SO 11.1
Ieri h: 23:20 sereno Sereno 16 11 72 1019 10 S/SO 13
Ieri h: 22:50 sereno Sereno 16 11 72 1019 10 S/SO 14.8
Ieri h: 22:20 sereno Sereno 16 11 72 1018 10 S/SO 14.8
Ieri h: 21:50 sereno Sereno 17 10 63 1018 10 SO 18.5
Ieri h: 21:20 sereno Sereno 17 11 67 1018 10 S/SO 14.8
Ieri h: 20:50 nuvoloso Nuvoloso 17 10 63 1018 10 S/SO 20.3
Ieri h: 20:20 poco_nuvoloso Poco Nuvoloso 18 10 59 1018 10 SO 22.2
Ieri h: 19:50 nuvoloso Nuvoloso 19 11 59 1018 10 SO 22.2
Ieri h: 19:20 poco_nuvoloso Poco Nuvoloso 19 10 55 1018 10 SO 25.9
Ieri h: 18:50 nuvoloso Nuvoloso 20 11 56 1018 10 SO 22.2
Ieri h: 18:20 molto_nuvoloso Molto Nuvoloso 20 11 56 1017 10 S/SO 22.2
Ieri h: 17:50 molto_nuvoloso Molto Nuvoloso 19 11 59 1017 10 SO 27.8
Ieri h: 17:20 coperto Coperto 19 12 63 1017 10 SO 24
Ieri h: 16:50 coperto Coperto 19 11 59 1017 10 SO 25.9
Ieri h: 16:20 molto_nuvoloso Molto Nuvoloso 19 12 63 1017 10 O/SO 27.8
Ieri h: 15:50 molto_nuvoloso Molto Nuvoloso 19 11 59 1017 10 SO 29.6
Ieri h: 15:20 molto_nuvoloso Molto Nuvoloso 20 12 59 1017 10 SO 31.5
Ieri h: 14:50 molto_nuvoloso Molto Nuvoloso 20 11 56 1017 10 SO 27.8
Ieri h: 14:20 molto_nuvoloso Molto Nuvoloso 20 11 56 1016 10 SO 31.5
Ieri h: 13:50 molto_nuvoloso Molto Nuvoloso 20 11 56 1016 10 O/SO 31.5
Ieri h: 13:20 molto_nuvoloso Molto Nuvoloso 20 12 59 1016 10 SO 24
Ieri h: 12:50 molto_nuvoloso Molto Nuvoloso 19 13 68 1016 10 SO 25.9
Ieri h: 12:20 molto_nuvoloso Molto Nuvoloso 17 14 82 1016 10 S/SO 20.3
Ieri h: 11:50 coperto_pioggia Pioggia Debole 16 14 87 1016 10 SO 14.8
Ieri h: 11:20 coperto_pioggia Pioggia Debole 17 13 77 1016 10 SO 24
Ieri h: 10:50 coperto_pioggia Pioggia Debole 16 13 82 1016 10 S/SO 22.2
Ieri h: 10:20 coperto_pioggia Pioggia Debole 16 12 77 1016 10 S/SO 20.3
Ieri h: 09:50 molto_nuvoloso Molto Nuvoloso 16 13 82 1016 10 S/SO 16.7
Ieri h: 09:20 coperto Coperto 16 12 77 1016 10 S/SO 16.7
Ieri h: 08:50 molto_nuvoloso Molto Nuvoloso 16 11 72 1016 10 S/SO 16.7
Ieri h: 08:20 molto_nuvoloso Molto Nuvoloso 15 11 76 1016 10 S/SO 18.5
Ieri h: 07:50 nuvoloso Nuvoloso 15 11 76 1016 10 S/SO 14.8
Ieri h: 07:20 poco_nuvoloso Poco Nuvoloso 15 11 76 1016 10 S/SO 16.7
Ieri h: 06:50 coperto Coperto 13 11 87 1016 10 S/SO 9.3
Ieri h: 06:20 molto_nuvoloso Molto Nuvoloso 13 10 81 1016 10 S/SO 11.1
Ieri h: 05:50 poco_nuvoloso Poco Nuvoloso 12 10 87 1016 10 S/SO 9.3
Ieri h: 05:20 sereno Sereno 12 10 87 1016 10 S/SO 9.3
Ieri h: 04:50 sereno Sereno 11 10 93 1016 10 N 3.7
Ieri h: 04:20 sereno Sereno 12 10 87 1016 10 S/SO 7.4
Ieri h: 03:50 sereno Sereno 12 10 87 1016 10 S/SO 7.4
Ieri h: 03:20 sereno Sereno 12 10 87 1015 10 S/SO 7.4
Ieri h: 02:50 sereno Sereno 12 10 87 1015 10 N 5.5
Ieri h: 02:20 sereno Sereno 13 10 81 1015 10 S/SO 11.1
Ieri h: 01:50 sereno Sereno 13 10 81 1015 10 SO 7.4
Ieri h: 01:20 sereno Sereno 13 11 87 1015 10 S/SO 9.3
Ieri h: 00:50 sereno Sereno 13 11 87 1015 10 SO 7.4